createdAt,value
2023-05-01T00:27:28.349Z,12.94
2023-05-01T00:56:25.672Z,12.48
2023-05-01T01:25:39.227Z,12.49
2023-05-01T01:54:34.984Z,12.53
2023-05-01T02:23:37.294Z,12.14
2023-05-01T02:52:35.447Z,11.69
2023-05-01T03:21:38.255Z,11.78
2023-05-01T03:50:38.214Z,11.87
2023-05-01T04:19:37.380Z,11.9
2023-05-01T04:48:35.231Z,12.03
2023-05-01T05:17:37.785Z,12.23
2023-05-01T05:46:34.338Z,12.28
2023-05-01T06:15:42.599Z,12.32
2023-05-01T06:44:42.648Z,12.13
2023-05-01T07:13:40.440Z,11.91
2023-05-01T07:42:48.946Z,13.27
2023-05-01T08:11:59.699Z,14.95
2023-05-01T08:41:14.250Z,16.47
2023-05-01T09:10:20.768Z,16.54
2023-05-01T09:39:24.937Z,19.4
2023-05-01T10:08:23.020Z,20.14
2023-05-01T10:37:45.667Z,20.41
2023-05-01T11:06:42.937Z,20.55
2023-05-01T11:35:19.083Z,20.08
2023-05-01T12:04:17.622Z,17.65
2023-05-01T12:32:39.691Z,13.75
2023-05-01T13:01:17.667Z,13.48
2023-05-01T13:30:17.757Z,15.46
2023-05-01T13:59:22.533Z,17.29
2023-05-01T14:28:12.826Z,16.33
2023-05-01T14:57:19.671Z,17.42
2023-05-01T15:26:03.824Z,16.9
2023-05-01T15:54:39.366Z,17.66
2023-05-01T16:23:41.594Z,17.58
2023-05-01T16:52:45.522Z,17.33
2023-05-01T17:21:56.511Z,17.14
2023-05-01T17:50:53.477Z,16.85
2023-05-01T18:19:58.673Z,16.57
2023-05-01T18:48:32.912Z,16
2023-05-01T19:17:22.872Z,15.11
2023-05-01T19:46:18.057Z,14.77
2023-05-01T20:14:42.426Z,14.32
2023-05-01T20:43:32.387Z,13.49
2023-05-01T21:12:42.126Z,13.7
2023-05-01T21:41:29.117Z,13.2
2023-05-01T22:10:18.920Z,12.68
2023-05-01T22:39:22.210Z,12.33
2023-05-01T23:07:36.625Z,12.26
2023-05-01T23:36:26.303Z,11.88
